createdAt,value
2019-01-26T00:01:10.704Z,18.33
2019-01-26T00:03:39.146Z,17.37
2019-01-26T00:06:07.629Z,15.67
2019-01-26T00:08:36.043Z,13.07
2019-01-26T00:11:04.583Z,13.90
2019-01-26T00:13:33.076Z,15.30
2019-01-26T00:16:01.580Z,11.43
2019-01-26T00:18:31.016Z,15.70
2019-01-26T00:21:00.715Z,9.67
2019-01-26T00:23:29.140Z,12.90
2019-01-26T00:25:57.569Z,12.37
2019-01-26T00:28:26.006Z,12.33
2019-01-26T00:30:54.600Z,12.50
2019-01-26T00:33:23.002Z,13.70
2019-01-26T00:35:51.431Z,16.70
2019-01-26T00:38:19.852Z,11.37
2019-01-26T00:40:48.294Z,11.30
2019-01-26T00:43:16.714Z,14.73
2019-01-26T00:45:45.128Z,12.00
2019-01-26T00:48:13.536Z,13.50
2019-01-26T00:50:41.975Z,14.03
2019-01-26T00:53:10.381Z,9.80
2019-01-26T00:55:38.880Z,9.80
2019-01-26T00:58:07.368Z,11.37
2019-01-26T01:00:35.870Z,9.77
2019-01-26T01:03:04.412Z,10.97
2019-01-26T01:05:32.842Z,9.53
2019-01-26T01:08:01.260Z,13.57
2019-01-26T01:10:29.687Z,10.17
2019-01-26T01:12:58.097Z,14.73
2019-01-26T01:15:26.600Z,8.50
2019-01-26T01:17:55.019Z,13.63
2019-01-26T01:20:23.505Z,12.83
2019-01-26T01:22:51.928Z,10.30
2019-01-26T01:25:20.364Z,14.47
2019-01-26T01:27:48.783Z,12.33
2019-01-26T01:30:20.416Z,14.90
2019-01-26T01:32:48.872Z,14.03
2019-01-26T01:35:17.669Z,14.00
2019-01-26T01:37:46.146Z,12.07
2019-01-26T01:40:16.108Z,15.50
2019-01-26T01:42:44.522Z,14.67
2019-01-26T01:45:16.020Z,13.10
2019-01-26T01:47:44.650Z,12.47
2019-01-26T01:50:13.756Z,12.03
2019-01-26T01:52:42.222Z,14.60
2019-01-26T01:55:11.222Z,11.70
2019-01-26T01:57:39.764Z,15.10
2019-01-26T02:00:16.908Z,15.13
2019-01-26T02:02:45.335Z,15.67
2019-01-26T02:05:13.858Z,16.53
2019-01-26T02:07:42.350Z,16.63
2019-01-26T02:10:14.131Z,17.87
2019-01-26T02:12:42.550Z,16.97
2019-01-26T02:15:12.313Z,12.73
2019-01-26T02:17:40.800Z,17.90
2019-01-26T02:20:15.026Z,12.83
2019-01-26T02:22:43.448Z,16.10
2019-01-26T02:25:12.035Z,17.03
2019-01-26T02:27:40.535Z,19.07
2019-01-26T02:30:18.310Z,15.53
2019-01-26T02:32:46.800Z,15.77
2019-01-26T02:35:15.745Z,16.73
2019-01-26T02:37:44.182Z,16.80
2019-01-26T02:40:15.910Z,18.50
2019-01-26T02:42:44.327Z,14.67
2019-01-26T02:45:14.276Z,16.83
2019-01-26T02:47:43.398Z,14.93
2019-01-26T02:50:17.090Z,16.43
2019-01-26T02:52:45.660Z,16.00
2019-01-26T02:55:14.303Z,15.13
2019-01-26T02:57:43.142Z,14.60
2019-01-26T03:00:14.624Z,13.10
2019-01-26T03:02:43.074Z,13.30
2019-01-26T03:05:11.633Z,15.27
2019-01-26T03:07:40.134Z,13.40
2019-01-26T03:10:11.774Z,15.77
2019-01-26T03:12:40.188Z,19.27
2019-01-26T03:15:11.747Z,14.40
2019-01-26T03:17:40.242Z,16.60
2019-01-26T03:20:11.092Z,15.40
2019-01-26T03:22:39.608Z,15.87
2019-01-26T03:25:09.573Z,17.33
2019-01-26T03:27:38.074Z,15.20
2019-01-26T03:30:09.552Z,15.10
2019-01-26T03:32:37.990Z,14.27
2019-01-26T03:35:06.862Z,13.07
2019-01-26T03:37:35.286Z,15.53
2019-01-26T03:40:05.523Z,12.60
2019-01-26T03:42:33.962Z,12.47
2019-01-26T03:45:02.377Z,12.57
2019-01-26T03:47:30.812Z,11.90
2019-01-26T03:49:59.217Z,15.20
2019-01-26T03:52:27.704Z,11.97
2019-01-26T03:54:56.142Z,12.40
2019-01-26T03:57:24.828Z,12.37
2019-01-26T03:59:53.323Z,14.47
2019-01-26T04:02:21.747Z,12.23
2019-01-26T04:04:51.914Z,13.17
2019-01-26T04:07:20.319Z,12.70
2019-01-26T04:09:48.752Z,12.23
2019-01-26T04:12:17.155Z,11.43
2019-01-26T04:14:45.578Z,11.47
2019-01-26T04:17:21.612Z,11.07
2019-01-26T04:19:44.273Z,14.00
2019-01-26T04:22:12.770Z,10.30
2019-01-26T04:24:41.196Z,12.13
2019-01-26T04:27:09.614Z,12.53
2019-01-26T04:29:38.064Z,11.27
2019-01-26T04:32:06.550Z,13.07
2019-01-26T04:34:34.974Z,14.70
2019-01-26T04:37:03.412Z,9.30
2019-01-26T04:39:31.897Z,10.30
2019-01-26T04:42:00.351Z,11.57
2019-01-26T04:44:28.821Z,8.50
2019-01-26T04:46:57.233Z,10.43
2019-01-26T04:49:25.660Z,11.50
2019-01-26T04:51:54.146Z,11.13
2019-01-26T04:54:22.579Z,9.20
2019-01-26T04:56:50.994Z,10.90
2019-01-26T04:59:19.416Z,10.63
2019-01-26T05:01:47.863Z,10.13
2019-01-26T05:04:16.268Z,9.60
2019-01-26T05:06:44.695Z,11.30
2019-01-26T05:09:13.120Z,11.10
2019-01-26T05:11:41.523Z,10.30
2019-01-26T05:14:09.974Z,11.00
2019-01-26T05:16:38.391Z,11.90
2019-01-26T05:19:06.808Z,8.77
2019-01-26T05:21:35.213Z,12.10
2019-01-26T05:24:03.716Z,8.40
2019-01-26T05:26:32.132Z,8.60
2019-01-26T05:29:00.542Z,8.60
2019-01-26T05:31:28.976Z,12.23
2019-01-26T05:33:57.412Z,11.23
2019-01-26T05:36:25.820Z,10.00
2019-01-26T05:38:54.241Z,8.40
2019-01-26T05:41:22.677Z,9.80
2019-01-26T05:43:51.111Z,8.63
2019-01-26T05:46:19.525Z,9.70
2019-01-26T05:48:47.950Z,9.97
2019-01-26T05:51:16.386Z,17.70
2019-01-26T05:53:44.806Z,13.83
2019-01-26T05:56:13.238Z,21.10
2019-01-26T05:58:41.649Z,10.37
2019-01-26T06:01:10.107Z,10.13
2019-01-26T06:03:38.511Z,11.10
2019-01-26T06:06:06.943Z,8.07
2019-01-26T06:08:35.361Z,13.27
2019-01-26T06:11:04.267Z,9.47
2019-01-26T06:13:32.732Z,11.93
2019-01-26T06:16:01.146Z,13.13
2019-01-26T06:18:29.570Z,14.93
2019-01-26T06:20:57.998Z,9.43
2019-01-26T06:23:26.400Z,8.80
2019-01-26T06:25:54.818Z,8.77
2019-01-26T06:28:23.260Z,8.03
2019-01-26T06:30:51.698Z,7.90
2019-01-26T06:33:20.107Z,7.13
2019-01-26T06:35:49.756Z,5.50
2019-01-26T06:38:18.166Z,7.30
2019-01-26T06:40:46.594Z,6.43
2019-01-26T06:43:14.992Z,5.07
2019-01-26T06:45:46.399Z,9.13
2019-01-26T06:48:14.807Z,6.30
2019-01-26T06:50:43.234Z,6.07
2019-01-26T06:53:11.700Z,8.00
2019-01-26T06:55:40.116Z,7.37
2019-01-26T06:58:08.521Z,5.47
2019-01-26T07:00:36.944Z,9.30
2019-01-26T07:03:05.480Z,5.47
2019-01-26T07:05:35.692Z,4.63
2019-01-26T07:08:04.157Z,6.53
2019-01-26T07:10:32.662Z,5.53
2019-01-26T07:13:01.064Z,5.07
2019-01-26T07:15:29.488Z,4.00
2019-01-26T07:17:57.913Z,6.10
2019-01-26T07:20:26.346Z,5.03
2019-01-26T07:22:54.765Z,4.80
2019-01-26T07:25:23.209Z,4.83
2019-01-26T07:27:51.690Z,3.37
2019-01-26T07:30:24.124Z,7.67
2019-01-26T07:32:52.589Z,8.30
2019-01-26T07:35:22.298Z,7.30
2019-01-26T07:37:50.717Z,6.00
2019-01-26T07:40:23.447Z,4.30
2019-01-26T07:42:52.788Z,7.00
2019-01-26T07:45:21.502Z,5.20
2019-01-26T07:47:49.900Z,7.00
2019-01-26T07:50:20.883Z,7.83
2019-01-26T07:52:49.349Z,8.20
2019-01-26T07:55:18.791Z,4.13
2019-01-26T07:57:47.221Z,8.23
2019-01-26T08:00:21.624Z,9.27
2019-01-26T08:02:50.060Z,11.30
2019-01-26T08:05:18.731Z,11.60
2019-01-26T08:07:47.196Z,6.97
2019-01-26T08:10:23.664Z,7.23
2019-01-26T08:12:52.300Z,6.53
2019-01-26T08:15:29.128Z,3.07
2019-01-26T08:17:57.593Z,6.43
2019-01-26T08:20:26.154Z,4.33
2019-01-26T08:22:54.693Z,3.93
2019-01-26T08:25:23.107Z,3.50
2019-01-26T08:27:51.532Z,4.60
2019-01-26T08:30:21.895Z,3.90
2019-01-26T08:32:50.859Z,5.13
2019-01-26T08:35:19.726Z,7.13
2019-01-26T08:37:48.982Z,4.97
2019-01-26T08:40:19.720Z,4.73
2019-01-26T08:42:49.080Z,6.43
2019-01-26T08:45:17.639Z,4.80
2019-01-26T08:47:46.218Z,9.73
2019-01-26T08:50:20.168Z,5.37
2019-01-26T08:52:48.660Z,6.30
2019-01-26T08:55:18.418Z,6.40
2019-01-26T08:57:47.312Z,8.50
2019-01-26T09:00:21.575Z,5.93
2019-01-26T09:02:55.805Z,6.67
2019-01-26T09:05:26.156Z,6.80
2019-01-26T09:07:54.652Z,7.13
2019-01-26T09:10:23.070Z,5.63
2019-01-26T09:12:51.506Z,6.23
2019-01-26T09:15:20.242Z,7.37
2019-01-26T09:17:48.666Z,6.83
2019-01-26T09:20:17.908Z,4.73
2019-01-26T09:22:46.332Z,6.00
2019-01-26T09:25:15.176Z,6.43
2019-01-26T09:27:43.945Z,6.33
2019-01-26T09:30:20.192Z,4.60
2019-01-26T09:32:48.857Z,4.10
2019-01-26T09:35:19.079Z,7.47
2019-01-26T09:37:47.661Z,4.73
2019-01-26T09:40:21.145Z,4.80
2019-01-26T09:42:49.714Z,5.03
2019-01-26T09:45:21.560Z,4.70
2019-01-26T09:47:49.977Z,5.37
2019-01-26T09:50:19.926Z,6.00
2019-01-26T09:52:48.524Z,7.10
2019-01-26T09:55:23.018Z,3.80
2019-01-26T09:57:51.435Z,7.90
2019-01-26T10:00:25.349Z,7.03
2019-01-26T10:02:53.908Z,5.80
2019-01-26T10:05:22.394Z,6.00
2019-01-26T10:07:50.813Z,8.60
2019-01-26T10:10:20.652Z,5.83
2019-01-26T10:12:49.157Z,3.97
2019-01-26T10:15:26.856Z,7.17
2019-01-26T10:17:55.344Z,6.17
2019-01-26T10:20:32.524Z,5.67
2019-01-26T10:23:00.954Z,5.67
2019-01-26T10:25:29.385Z,4.10
2019-01-26T10:27:57.876Z,3.87
2019-01-26T10:30:33.302Z,22.90
2019-01-26T10:33:01.717Z,4.73
2019-01-26T10:35:34.488Z,9.13
2019-01-26T10:38:02.896Z,12.53
2019-01-26T10:40:44.869Z,10.70
2019-01-26T10:43:14.937Z,6.90
2019-01-26T10:45:43.424Z,8.13
2019-01-26T10:48:11.830Z,6.40
2019-01-26T10:50:40.266Z,5.10
2019-01-26T10:53:08.698Z,4.50
2019-01-26T10:55:37.109Z,5.57
2019-01-26T10:58:05.520Z,5.33
2019-01-26T11:00:33.927Z,7.10
2019-01-26T11:03:02.361Z,5.20
2019-01-26T11:05:30.787Z,4.63
2019-01-26T11:07:59.206Z,6.30
2019-01-26T11:10:27.618Z,6.40
2019-01-26T11:12:56.032Z,6.20
2019-01-26T11:15:24.432Z,5.90
2019-01-26T11:17:52.848Z,16.73
2019-01-26T11:20:21.270Z,9.17
2019-01-26T11:22:49.681Z,13.30
2019-01-26T11:25:18.148Z,4.97
2019-01-26T11:27:46.564Z,10.93
2019-01-26T11:30:20.932Z,12.00
2019-01-26T11:32:49.350Z,4.40
2019-01-26T11:35:20.847Z,5.73
2019-01-26T11:37:49.303Z,4.33
2019-01-26T11:40:19.484Z,5.20
2019-01-26T11:42:47.982Z,6.07
2019-01-26T11:45:24.573Z,5.40
2019-01-26T11:47:53.365Z,3.57
2019-01-26T11:50:26.407Z,4.57
2019-01-26T11:52:54.904Z,5.60
2019-01-26T11:55:26.558Z,3.47
2019-01-26T11:57:55.208Z,9.30
2019-01-26T12:00:34.162Z,3.47
2019-01-26T12:03:04.268Z,8.57
2019-01-26T12:05:34.372Z,3.83
2019-01-26T12:08:02.876Z,4.83
2019-01-26T12:10:31.403Z,4.73
2019-01-26T12:12:59.810Z,4.10
2019-01-26T12:15:28.315Z,5.47
2019-01-26T12:17:56.877Z,2.70
2019-01-26T12:20:25.448Z,3.43
2019-01-26T12:22:53.968Z,2.97
2019-01-26T12:25:22.507Z,2.67
2019-01-26T12:27:51.021Z,3.60
2019-01-26T12:30:19.581Z,4.40
2019-01-26T12:32:48.075Z,3.00
2019-01-26T12:35:16.613Z,4.20
2019-01-26T12:37:45.059Z,2.80
2019-01-26T12:40:15.256Z,4.87
2019-01-26T12:42:43.739Z,2.93
2019-01-26T12:45:18.044Z,4.60
2019-01-26T12:47:46.561Z,2.77
2019-01-26T12:50:15.288Z,3.27
2019-01-26T12:52:43.892Z,20.30
2019-01-26T12:55:17.615Z,3.47
2019-01-26T12:57:46.089Z,5.10
2019-01-26T13:00:17.674Z,5.23
2019-01-26T13:02:46.175Z,6.97
2019-01-26T13:05:15.215Z,5.67
2019-01-26T13:07:43.887Z,5.50
2019-01-26T13:10:18.414Z,3.10
2019-01-26T13:12:47.069Z,2.83
2019-01-26T13:15:15.886Z,7.03
2019-01-26T13:17:44.508Z,3.27
2019-01-26T13:20:15.528Z,4.63
2019-01-26T13:22:43.986Z,5.63
2019-01-26T13:25:15.790Z,4.00
2019-01-26T13:27:44.333Z,5.20
2019-01-26T13:30:15.546Z,4.63
2019-01-26T13:32:44.090Z,5.90
2019-01-26T13:35:12.806Z,4.27
2019-01-26T13:37:41.354Z,6.60
2019-01-26T13:40:15.501Z,7.30
2019-01-26T13:42:44.051Z,8.90
2019-01-26T13:45:15.010Z,4.93
2019-01-26T13:47:43.539Z,5.67
2019-01-26T13:50:13.050Z,8.03
2019-01-26T13:52:41.566Z,6.37
2019-01-26T13:55:13.506Z,6.30
2019-01-26T13:57:42.286Z,4.27
2019-01-26T14:00:22.639Z,4.63
2019-01-26T14:02:51.124Z,7.30
2019-01-26T14:05:19.532Z,6.73
2019-01-26T14:07:48.005Z,4.93
2019-01-26T14:10:20.373Z,6.63
2019-01-26T14:12:48.912Z,6.80
2019-01-26T14:15:19.060Z,3.80
2019-01-26T14:17:47.539Z,3.77
2019-01-26T14:20:19.122Z,3.93
2019-01-26T14:22:47.671Z,9.30
2019-01-26T14:25:17.338Z,4.90
2019-01-26T14:27:45.987Z,4.87
2019-01-26T14:30:20.609Z,4.10
2019-01-26T14:32:52.647Z,3.17
2019-01-26T14:35:19.254Z,4.00
2019-01-26T14:37:47.824Z,3.80
2019-01-26T14:40:17.433Z,4.63
2019-01-26T14:42:45.845Z,3.10
2019-01-26T14:45:18.725Z,6.57
2019-01-26T14:47:47.128Z,3.90
2019-01-26T14:50:18.288Z,3.60
2019-01-26T14:52:47.234Z,2.97
2019-01-26T14:55:23.649Z,3.37
2019-01-26T14:57:52.116Z,3.87
2019-01-26T15:00:34.799Z,3.20
2019-01-26T15:03:03.201Z,4.70
2019-01-26T15:05:31.680Z,3.23
2019-01-26T15:08:00.236Z,3.27
2019-01-26T15:10:28.895Z,5.10
2019-01-26T15:12:57.293Z,5.97
2019-01-26T15:15:25.785Z,5.33
2019-01-26T15:17:54.316Z,3.87
2019-01-26T15:20:30.998Z,3.77
2019-01-26T15:22:59.406Z,5.53
2019-01-26T15:25:27.821Z,4.40
2019-01-26T15:27:56.220Z,4.53
2019-01-26T15:30:33.567Z,4.07
2019-01-26T15:33:02.059Z,5.07
2019-01-26T15:35:30.550Z,4.73
2019-01-26T15:38:00.349Z,4.47
2019-01-26T15:40:28.878Z,3.30
2019-01-26T15:42:57.305Z,4.13
2019-01-26T15:45:34.433Z,3.33
2019-01-26T15:48:02.825Z,3.73
2019-01-26T15:50:31.259Z,4.30
2019-01-26T15:52:59.671Z,3.90
2019-01-26T15:55:28.371Z,7.10
2019-01-26T15:57:56.760Z,5.00
2019-01-26T16:00:27.939Z,4.17
2019-01-26T16:02:56.472Z,9.63
2019-01-26T16:05:24.884Z,4.67
2019-01-26T16:07:53.431Z,3.97
2019-01-26T16:10:23.724Z,4.67
2019-01-26T16:12:53.225Z,19.43
2019-01-26T16:15:30.085Z,5.87
2019-01-26T16:17:58.494Z,19.13
2019-01-26T16:20:27.068Z,18.60
2019-01-26T16:22:55.905Z,6.40
2019-01-26T16:25:24.591Z,7.70
2019-01-26T16:27:53.076Z,3.83
2019-01-26T16:30:27.179Z,3.80
2019-01-26T16:32:55.596Z,14.17
2019-01-26T16:35:23.988Z,7.97
2019-01-26T16:37:52.500Z,14.07
2019-01-26T16:40:29.813Z,5.07
2019-01-26T16:42:58.297Z,17.90
2019-01-26T16:45:34.457Z,4.43
2019-01-26T16:48:03.167Z,2.87
2019-01-26T16:50:32.217Z,4.80
2019-01-26T16:53:00.705Z,2.77
2019-01-26T16:55:29.119Z,2.70
2019-01-26T16:57:57.624Z,3.30
2019-01-26T17:00:32.069Z,3.57
2019-01-26T17:03:00.484Z,2.93
2019-01-26T17:05:28.881Z,3.27
2019-01-26T17:07:57.293Z,8.53
2019-01-26T17:10:25.758Z,16.40
2019-01-26T17:12:54.197Z,17.50
2019-01-26T17:15:22.695Z,19.97
2019-01-26T17:17:51.108Z,25.87
2019-01-26T17:20:25.653Z,24.67
2019-01-26T17:22:54.823Z,25.73
2019-01-26T17:25:23.235Z,18.20
2019-01-26T17:27:51.640Z,3.27
2019-01-26T17:30:28.472Z,6.27
2019-01-26T17:32:56.916Z,4.80
2019-01-26T17:35:25.314Z,4.80
2019-01-26T17:37:53.799Z,3.43
2019-01-26T17:40:24.244Z,5.53
2019-01-26T17:42:52.668Z,5.17
2019-01-26T17:45:21.307Z,6.40
2019-01-26T17:47:50.461Z,4.77
2019-01-26T17:50:21.935Z,6.03
2019-01-26T17:52:50.800Z,5.00
2019-01-26T17:55:19.291Z,4.13
2019-01-26T17:57:47.848Z,3.67
2019-01-26T18:00:20.511Z,2.90
2019-01-26T18:02:48.970Z,3.67
2019-01-26T18:05:17.593Z,3.47
2019-01-26T18:07:46.086Z,3.37
2019-01-26T18:10:26.417Z,3.30
2019-01-26T18:12:55.465Z,3.30
2019-01-26T18:15:23.886Z,7.50
2019-01-26T18:17:52.325Z,3.50
2019-01-26T18:20:26.724Z,3.60
2019-01-26T18:22:55.207Z,8.57
2019-01-26T18:25:25.435Z,4.87
2019-01-26T18:27:53.927Z,4.20
2019-01-26T18:30:34.239Z,3.43
2019-01-26T18:33:02.684Z,4.30
2019-01-26T18:35:31.095Z,3.37
2019-01-26T18:37:59.574Z,6.77
2019-01-26T18:40:29.312Z,4.30
2019-01-26T18:42:57.960Z,7.63
2019-01-26T18:45:29.009Z,4.30
2019-01-26T18:47:57.505Z,4.00
2019-01-26T18:50:34.812Z,6.30
2019-01-26T18:53:03.345Z,5.40
2019-01-26T18:55:31.977Z,4.10
2019-01-26T18:58:00.431Z,4.10
2019-01-26T19:00:38.052Z,5.07
2019-01-26T19:03:30.802Z,4.40
2019-01-26T19:05:59.627Z,6.60
2019-01-26T19:08:28.205Z,9.10
2019-01-26T19:10:56.693Z,9.93
2019-01-26T19:13:25.161Z,7.60
2019-01-26T19:15:53.796Z,6.80
2019-01-26T19:18:22.209Z,5.00
2019-01-26T19:20:50.640Z,7.27
2019-01-26T19:23:19.050Z,7.90
2019-01-26T19:25:48.848Z,11.57
2019-01-26T19:28:17.257Z,8.40
2019-01-26T19:30:45.657Z,9.80
2019-01-26T19:33:14.222Z,68.33
2019-01-26T19:35:42.628Z,31.90
2019-01-26T19:38:11.064Z,16.70
2019-01-26T19:40:39.465Z,18.10
2019-01-26T19:43:07.876Z,14.13
2019-01-26T19:45:36.284Z,7.20
2019-01-26T19:48:04.979Z,7.60
2019-01-26T19:50:33.407Z,11.30
2019-01-26T19:53:01.810Z,10.60
2019-01-26T19:55:30.229Z,17.30
2019-01-26T19:57:58.637Z,16.97
2019-01-26T20:00:27.070Z,15.37
2019-01-26T20:02:55.472Z,26.97
2019-01-26T20:05:25.233Z,34.30
2019-01-26T20:07:53.720Z,24.33
2019-01-26T20:10:22.313Z,29.80
2019-01-26T20:12:50.788Z,21.77
2019-01-26T20:15:21.832Z,20.33
2019-01-26T20:17:50.786Z,26.10
2019-01-26T20:20:22.146Z,23.50
2019-01-26T20:22:50.544Z,19.07
2019-01-26T20:25:18.968Z,11.13
2019-01-26T20:27:47.517Z,53.13
2019-01-26T20:30:21.756Z,22.23
2019-01-26T20:32:50.162Z,18.43
2019-01-26T20:35:18.576Z,15.53
2019-01-26T20:37:46.999Z,19.60
2019-01-26T20:40:17.460Z,20.80
2019-01-26T20:42:46.105Z,12.53
2019-01-26T20:45:17.595Z,9.13
2019-01-26T20:47:46.010Z,10.60
2019-01-26T20:50:14.560Z,10.17
2019-01-26T20:52:43.204Z,7.37
2019-01-26T20:55:13.069Z,10.70
2019-01-26T20:57:41.554Z,11.00
2019-01-26T21:00:21.796Z,12.33
2019-01-26T21:02:50.269Z,9.73
2019-01-26T21:05:18.706Z,14.27
2019-01-26T21:07:47.172Z,10.27
2019-01-26T21:10:18.523Z,10.27
2019-01-26T21:12:47.553Z,9.00
2019-01-26T21:15:15.976Z,12.47
2019-01-26T21:17:44.704Z,11.60
2019-01-26T21:20:15.656Z,10.40
2019-01-26T21:22:44.140Z,8.60
2019-01-26T21:25:13.697Z,8.33
2019-01-26T21:27:42.115Z,13.63
2019-01-26T21:30:13.788Z,12.80
2019-01-26T21:32:42.193Z,13.10
2019-01-26T21:35:11.065Z,7.27
2019-01-26T21:37:39.513Z,20.50
2019-01-26T21:40:23.208Z,7.27
2019-01-26T21:42:51.635Z,11.00
2019-01-26T21:45:20.608Z,21.10
2019-01-26T21:47:49.036Z,13.07
2019-01-26T21:50:27.865Z,17.80
2019-01-26T21:52:56.706Z,14.90
2019-01-26T21:55:25.266Z,12.93
2019-01-26T21:57:53.670Z,12.07
2019-01-26T22:00:30.156Z,12.30
2019-01-26T22:02:58.628Z,13.47
2019-01-26T22:05:27.066Z,14.80
2019-01-26T22:07:55.554Z,14.17
2019-01-26T22:10:26.730Z,12.57
2019-01-26T22:12:55.264Z,12.73
2019-01-26T22:15:24.356Z,12.93
2019-01-26T22:17:53.110Z,18.07
2019-01-26T22:20:23.772Z,15.37
2019-01-26T22:22:52.322Z,14.00
2019-01-26T22:25:21.231Z,15.80
2019-01-26T22:27:49.639Z,12.17
2019-01-26T22:30:23.919Z,22.57
2019-01-26T22:32:52.403Z,20.67
2019-01-26T22:35:21.158Z,9.10
2019-01-26T22:37:49.652Z,29.10
2019-01-26T22:40:23.822Z,27.87
2019-01-26T22:42:52.232Z,21.90
2019-01-26T22:45:21.106Z,25.77
2019-01-26T22:47:49.522Z,25.23
2019-01-26T22:50:20.862Z,7.57
2019-01-26T22:52:49.328Z,4.53
2019-01-26T22:55:19.580Z,2.63
2019-01-26T22:57:49.602Z,3.47
2019-01-26T23:00:52.954Z,2.93
2019-01-26T23:03:32.702Z,4.30
2019-01-26T23:06:34.261Z,4.73
2019-01-26T23:09:14.665Z,3.30
2019-01-26T23:12:05.143Z,4.00
2019-01-26T23:14:45.739Z,3.60
2019-01-26T23:17:39.977Z,5.03
2019-01-26T23:20:11.463Z,4.17
2019-01-26T23:22:57.932Z,4.03
2019-01-26T23:25:41.656Z,4.40
2019-01-26T23:28:24.980Z,4.57
2019-01-26T23:31:15.435Z,5.47
2019-01-26T23:33:44.691Z,7.37
2019-01-26T23:36:13.848Z,9.10
2019-01-26T23:38:42.274Z,4.10
2019-01-26T23:41:11.020Z,4.33
2019-01-26T23:43:39.428Z,6.60
2019-01-26T23:46:07.844Z,6.20
2019-01-26T23:48:36.317Z,4.20
2019-01-26T23:51:05.246Z,4.10
2019-01-26T23:53:33.638Z,4.67
2019-01-26T23:56:02.080Z,4.30
2019-01-26T23:58:30.490Z,4.83
